createdAt,value
2023-05-21T00:00:30.180Z,76.15
2023-05-21T00:02:59.247Z,76.74
2023-05-21T00:05:26.597Z,76.65
2023-05-21T00:07:54.940Z,77.20
2023-05-21T00:10:22.600Z,77.25
2023-05-21T00:12:49.753Z,77.95
2023-05-21T00:15:16.920Z,78.48
2023-05-21T00:17:46.218Z,79.03
2023-05-21T00:20:13.491Z,78.88
2023-05-21T00:22:42.420Z,79.12
2023-05-21T00:25:11.720Z,79.30
2023-05-21T00:27:39.406Z,79.76
2023-05-21T00:30:07.321Z,80.53
2023-05-21T00:32:34.717Z,80.53
2023-05-21T00:35:01.821Z,80.68
2023-05-21T00:37:33.213Z,81.16
2023-05-21T00:40:11.547Z,80.72
2023-05-21T00:42:39.486Z,81.11
2023-05-21T00:45:08.672Z,81.49
2023-05-21T00:47:36.231Z,82.54
2023-05-21T00:50:04.662Z,82.22
2023-05-21T00:52:32.029Z,82.89
2023-05-21T00:54:59.086Z,83.01
2023-05-21T00:57:29.847Z,83.30
2023-05-21T00:59:57.290Z,83.79
2023-05-21T01:02:26.088Z,84.02
2023-05-21T01:04:56.341Z,84.39
2023-05-21T01:07:23.660Z,84.29
2023-05-21T01:09:51.102Z,84.52
2023-05-21T01:12:19.638Z,84.70
2023-05-21T01:14:48.125Z,84.91
2023-05-21T01:17:16.416Z,85.54
2023-05-21T01:19:44.795Z,85.81
2023-05-21T01:22:14.359Z,85.44
2023-05-21T01:24:41.746Z,85.39
2023-05-21T01:27:10.509Z,85.66
2023-05-21T01:29:37.906Z,85.81
2023-05-21T01:32:37.348Z,86.03
2023-05-21T01:35:11.337Z,86.46
2023-05-21T01:37:49.536Z,86.37
2023-05-21T01:40:24.019Z,86.55
2023-05-21T01:42:52.093Z,86.61
2023-05-21T01:45:21.679Z,86.13
2023-05-21T01:47:51.780Z,86.45
2023-05-21T01:50:19.582Z,86.22
2023-05-21T01:52:53.794Z,85.79
2023-05-21T01:55:25.043Z,85.77
2023-05-21T01:57:53.840Z,85.74
2023-05-21T02:00:22.554Z,86.12
2023-05-21T02:02:50.405Z,86.13
2023-05-21T02:05:18.260Z,86.30
2023-05-21T02:07:46.121Z,85.79
2023-05-21T02:10:13.932Z,86.00
2023-05-21T02:12:40.964Z,86.00
2023-05-21T02:15:09.223Z,86.35
2023-05-21T02:17:38.793Z,86.36
2023-05-21T02:20:13.748Z,86.60
2023-05-21T02:22:48.704Z,86.83
2023-05-21T02:25:18.458Z,86.83
2023-05-21T02:27:46.972Z,86.67
2023-05-21T02:30:16.233Z,87.27
2023-05-21T02:32:44.930Z,87.62
2023-05-21T02:35:13.198Z,87.85
2023-05-21T02:37:40.737Z,87.45
2023-05-21T02:40:09.764Z,87.57
2023-05-21T02:42:39.732Z,88.13
2023-05-21T02:45:09.310Z,87.83
2023-05-21T02:47:36.908Z,87.87
2023-05-21T02:50:07.073Z,87.73
2023-05-21T02:52:35.770Z,87.97
2023-05-21T02:55:03.319Z,88.56
2023-05-21T02:57:30.786Z,88.67
2023-05-21T02:59:58.417Z,88.77
2023-05-21T03:02:25.681Z,88.23
2023-05-21T03:04:54.201Z,88.43
2023-05-21T03:07:21.809Z,88.28
2023-05-21T03:09:48.998Z,88.79
2023-05-21T03:12:16.168Z,89.61
2023-05-21T03:14:44.260Z,89.41
2023-05-21T03:17:14.022Z,88.86
2023-05-21T03:19:42.311Z,88.68
2023-05-21T03:22:11.390Z,88.48
2023-05-21T03:24:39.281Z,87.63
2023-05-21T03:27:06.867Z,87.10
2023-05-21T03:29:35.028Z,86.21
2023-05-21T03:32:02.635Z,86.07
2023-05-21T03:34:31.269Z,86.45
2023-05-21T03:36:59.101Z,85.50
2023-05-21T03:39:26.908Z,86.37
2023-05-21T03:41:54.902Z,85.59
2023-05-21T03:44:22.924Z,85.51
2023-05-21T03:46:50.544Z,85.40
2023-05-21T03:49:18.364Z,85.28
2023-05-21T03:51:45.916Z,84.47
2023-05-21T03:54:13.586Z,84.81
2023-05-21T03:56:40.966Z,83.84
2023-05-21T03:59:08.911Z,83.53
2023-05-21T04:01:37.091Z,82.51
2023-05-21T04:04:05.005Z,81.37
2023-05-21T04:06:32.310Z,80.99
2023-05-21T04:08:59.445Z,80.21
2023-05-21T04:11:27.033Z,79.60
2023-05-21T04:13:54.213Z,79.61
2023-05-21T04:16:22.520Z,78.53
2023-05-21T04:18:50.189Z,78.31
2023-05-21T04:21:17.391Z,77.45
2023-05-21T04:23:44.686Z,76.82
2023-05-21T04:26:16.251Z,76.01
2023-05-21T04:28:43.518Z,75.14
2023-05-21T04:31:13.017Z,73.77
2023-05-21T04:33:42.213Z,72.93
2023-05-21T04:36:12.606Z,72.29
2023-05-21T04:38:41.880Z,71.25
2023-05-21T04:41:10.881Z,70.75
2023-05-21T04:43:38.347Z,70.14
2023-05-21T04:46:06.073Z,69.21
2023-05-21T04:48:34.057Z,69.48
2023-05-21T04:51:01.661Z,69.91
2023-05-21T04:53:29.890Z,69.41
2023-05-21T04:55:59.409Z,68.73
2023-05-21T04:58:27.895Z,68.98
2023-05-21T05:00:55.865Z,68.50
2023-05-21T05:03:23.443Z,69.18
2023-05-21T05:05:51.680Z,69.01
2023-05-21T05:08:20.291Z,68.62
2023-05-21T05:10:47.914Z,68.52
2023-05-21T05:13:16.057Z,69.06
2023-05-21T05:15:43.773Z,69.18
2023-05-21T05:18:11.949Z,68.64
2023-05-21T05:20:40.748Z,67.97
2023-05-21T05:23:07.842Z,69.47
2023-05-21T05:25:35.410Z,68.92
2023-05-21T05:28:02.765Z,67.49
2023-05-21T05:30:29.944Z,68.80
2023-05-21T05:32:59.255Z,67.52
2023-05-21T05:35:26.310Z,67.40
2023-05-21T05:37:53.313Z,66.11
2023-05-21T05:40:20.695Z,66.38
2023-05-21T05:42:49.541Z,65.88
2023-05-21T05:45:17.145Z,64.15
2023-05-21T05:47:44.752Z,62.76
2023-05-21T05:50:12.395Z,61.78
2023-05-21T05:52:39.509Z,59.75
2023-05-21T05:55:08.983Z,57.53
2023-05-21T05:57:36.278Z,57.77
2023-05-21T06:00:04.998Z,57.85
2023-05-21T06:02:39.556Z,56.79
2023-05-21T06:05:07.820Z,56.84
2023-05-21T06:07:40.705Z,56.52
2023-05-21T06:10:08.527Z,55.80
2023-05-21T06:12:35.942Z,56.23
2023-05-21T06:15:03.396Z,55.78
2023-05-21T06:17:31.892Z,56.08
2023-05-21T06:19:59.259Z,54.84
2023-05-21T06:22:26.940Z,55.53
2023-05-21T06:24:55.061Z,55.28
2023-05-21T06:27:22.161Z,53.95
2023-05-21T06:29:49.662Z,53.30
2023-05-21T06:32:17.342Z,54.19
2023-05-21T06:34:44.608Z,54.87
2023-05-21T06:37:11.731Z,55.38
2023-05-21T06:39:39.151Z,53.79
2023-05-21T06:42:06.507Z,54.34
2023-05-21T06:44:38.634Z,53.46
2023-05-21T06:47:07.080Z,53.77
2023-05-21T06:49:34.554Z,54.10
2023-05-21T06:52:02.432Z,53.62
2023-05-21T06:54:29.911Z,53.94
2023-05-21T06:56:57.037Z,52.74
2023-05-21T06:59:24.538Z,52.44
2023-05-21T07:01:52.023Z,53.57
2023-05-21T07:04:19.509Z,53.41
2023-05-21T07:06:46.819Z,53.39
2023-05-21T07:09:14.333Z,53.17
2023-05-21T07:11:42.404Z,50.30
2023-05-21T07:14:09.859Z,50.13
2023-05-21T07:16:37.760Z,50.69
2023-05-21T07:19:04.992Z,50.17
2023-05-21T07:21:32.903Z,48.37
2023-05-21T07:24:00.615Z,44.39
2023-05-21T07:26:27.749Z,42.75
2023-05-21T07:28:54.929Z,41.00
2023-05-21T07:31:23.052Z,40.27
2023-05-21T07:33:50.705Z,39.22
2023-05-21T07:36:18.309Z,38.56
2023-05-21T07:38:45.756Z,37.56
2023-05-21T07:41:13.588Z,37.10
2023-05-21T07:43:40.804Z,37.25
2023-05-21T07:46:08.603Z,37.21
2023-05-21T07:48:36.118Z,36.78
2023-05-21T07:51:03.954Z,35.91
2023-05-21T07:53:32.473Z,35.80
2023-05-21T07:56:00.647Z,37.46
2023-05-21T07:58:28.359Z,36.58
2023-05-21T08:00:55.993Z,36.53
2023-05-21T08:03:28.036Z,36.01
2023-05-21T08:05:55.340Z,36.45
2023-05-21T08:08:23.466Z,36.15
2023-05-21T08:10:52.131Z,36.66
2023-05-21T08:13:19.596Z,36.27
2023-05-21T08:15:47.231Z,36.34
2023-05-21T08:18:15.126Z,35.48
2023-05-21T08:20:42.544Z,35.86
2023-05-21T08:23:10.057Z,37.51
2023-05-21T08:25:38.604Z,36.88
2023-05-21T08:28:06.957Z,36.86
2023-05-21T08:30:34.681Z,36.13
2023-05-21T08:33:02.584Z,36.85
2023-05-21T08:35:30.866Z,36.55
2023-05-21T08:37:58.907Z,36.16
2023-05-21T08:40:26.948Z,36.16
2023-05-21T08:42:54.237Z,36.43
2023-05-21T08:45:24.141Z,36.01
2023-05-21T08:48:00.993Z,35.16
2023-05-21T08:50:29.202Z,34.71
2023-05-21T08:52:59.059Z,34.85
2023-05-21T08:55:27.059Z,34.64
2023-05-21T08:57:55.222Z,34.88
2023-05-21T09:00:24.178Z,34.78
2023-05-21T09:02:54.636Z,35.65
2023-05-21T09:05:22.687Z,34.95
2023-05-21T09:07:55.602Z,34.34
2023-05-21T09:10:32.299Z,33.43
2023-05-21T09:13:00.233Z,35.64
2023-05-21T09:15:27.398Z,35.50
2023-05-21T09:17:54.589Z,34.25
2023-05-21T09:20:28.271Z,34.68
2023-05-21T09:22:56.332Z,35.58
2023-05-21T09:25:28.300Z,33.69
2023-05-21T09:27:56.816Z,32.87
2023-05-21T09:30:26.933Z,35.25
2023-05-21T09:32:58.724Z,33.14
2023-05-21T09:35:26.346Z,33.34
2023-05-21T09:37:53.721Z,34.33
2023-05-21T09:40:22.986Z,35.09
2023-05-21T09:42:53.273Z,34.75
2023-05-21T09:45:27.258Z,34.31
2023-05-21T09:47:56.261Z,34.84
2023-05-21T09:50:26.965Z,33.59
2023-05-21T09:52:55.605Z,34.16
2023-05-21T09:55:24.278Z,34.33
2023-05-21T09:57:52.202Z,33.84
2023-05-21T10:00:22.562Z,33.68
2023-05-21T10:02:54.598Z,33.61
2023-05-21T10:05:28.209Z,34.99
2023-05-21T10:08:04.049Z,33.57
2023-05-21T10:10:32.238Z,35.31
2023-05-21T10:13:09.618Z,34.18
2023-05-21T10:15:44.194Z,32.72
2023-05-21T10:18:13.630Z,33.95
2023-05-21T10:20:41.427Z,33.37
2023-05-21T10:23:09.553Z,32.71
2023-05-21T10:25:37.565Z,31.95
2023-05-21T10:28:06.920Z,31.80
2023-05-21T10:30:36.354Z,34.21
2023-05-21T10:33:04.601Z,33.80
2023-05-21T10:35:33.741Z,32.25
2023-05-21T10:38:04.639Z,31.57
2023-05-21T10:40:32.377Z,30.88
2023-05-21T10:43:14.323Z,29.73
2023-05-21T10:46:03.241Z,32.13
2023-05-21T10:48:54.642Z,30.82
2023-05-21T10:51:46.925Z,31.77
2023-05-21T10:54:52.787Z,30.34
2023-05-21T10:57:40.013Z,30.84
2023-05-21T11:00:09.528Z,31.85
2023-05-21T11:02:37.484Z,33.99
2023-05-21T11:05:05.147Z,34.26
2023-05-21T11:07:56.436Z,32.91
2023-05-21T11:10:31.577Z,32.50
2023-05-21T11:13:08.904Z,31.50
2023-05-21T11:15:58.106Z,32.40
2023-05-21T11:18:37.863Z,32.33
2023-05-21T11:21:15.375Z,31.74
2023-05-21T11:24:02.746Z,31.02
2023-05-21T11:26:55.191Z,31.54
2023-05-21T11:29:33.569Z,31.26
2023-05-21T11:32:05.798Z,33.03
2023-05-21T11:34:40.840Z,31.60
2023-05-21T11:37:33.218Z,31.20
2023-05-21T11:40:20.181Z,32.49
2023-05-21T11:42:55.232Z,30.15
2023-05-21T11:45:24.703Z,29.78
2023-05-21T11:47:53.442Z,30.87
2023-05-21T11:50:20.897Z,30.11
2023-05-21T11:52:49.385Z,31.48
2023-05-21T11:55:22.126Z,32.17
2023-05-21T11:57:53.018Z,32.25
2023-05-21T12:00:20.381Z,33.32
2023-05-21T12:02:51.615Z,32.58
2023-05-21T12:05:18.911Z,32.68
2023-05-21T12:07:52.298Z,33.04
2023-05-21T12:10:24.129Z,31.43
2023-05-21T12:12:56.592Z,34.26
2023-05-21T12:15:26.496Z,31.57
2023-05-21T12:17:54.828Z,30.54
2023-05-21T12:20:22.541Z,31.32
2023-05-21T12:22:50.547Z,32.02
2023-05-21T12:25:20.112Z,32.66
2023-05-21T12:27:49.759Z,34.03
2023-05-21T12:30:17.217Z,34.41
2023-05-21T12:32:44.466Z,33.92
2023-05-21T12:35:22.610Z,34.81
2023-05-21T12:37:51.062Z,34.97
2023-05-21T12:40:18.698Z,35.09
2023-05-21T12:42:45.866Z,34.99
2023-05-21T12:45:13.653Z,33.71
2023-05-21T12:47:40.863Z,34.75
2023-05-21T12:50:11.624Z,34.68
2023-05-21T12:52:42.807Z,34.22
2023-05-21T12:55:13.070Z,34.72
2023-05-21T12:57:40.490Z,37.40
2023-05-21T13:00:08.832Z,34.31
2023-05-21T13:02:41.137Z,34.41
2023-05-21T13:05:10.950Z,34.31
2023-05-21T13:07:39.757Z,33.46
2023-05-21T13:10:07.715Z,31.83
2023-05-21T13:12:35.346Z,33.66
2023-05-21T13:15:04.470Z,34.22
2023-05-21T13:17:31.689Z,33.58
2023-05-21T13:20:14.979Z,32.53
2023-05-21T13:22:47.415Z,33.26
2023-05-21T13:25:28.508Z,33.12
2023-05-21T13:27:56.946Z,32.97
2023-05-21T13:30:24.274Z,35.82
2023-05-21T13:32:52.201Z,34.15
2023-05-21T13:35:19.709Z,35.50
2023-05-21T13:37:47.294Z,35.66
2023-05-21T13:40:15.788Z,35.35
2023-05-21T13:42:44.465Z,36.04
2023-05-21T13:45:13.565Z,35.65
2023-05-21T13:47:41.714Z,32.48
2023-05-21T13:50:09.753Z,33.43
2023-05-21T13:52:37.965Z,32.74
2023-05-21T13:55:05.944Z,34.75
2023-05-21T13:57:33.275Z,35.21
2023-05-21T14:00:01.228Z,36.78
2023-05-21T14:02:28.804Z,34.76
2023-05-21T14:04:56.216Z,34.84
2023-05-21T14:07:23.338Z,35.26
2023-05-21T14:09:50.427Z,36.18
2023-05-21T14:12:18.937Z,35.69
2023-05-21T14:14:46.079Z,34.21
2023-05-21T14:17:13.229Z,34.84
2023-05-21T14:19:41.219Z,34.21
2023-05-21T14:22:08.323Z,34.70
2023-05-21T14:24:35.459Z,34.41
2023-05-21T14:27:02.911Z,33.70
2023-05-21T14:29:30.753Z,34.87
2023-05-21T14:31:57.895Z,33.13
2023-05-21T14:34:25.389Z,33.68
2023-05-21T14:36:52.427Z,32.17
2023-05-21T14:39:19.464Z,32.21
2023-05-21T14:41:46.810Z,32.96
2023-05-21T14:44:14.003Z,34.28
2023-05-21T14:46:41.571Z,34.12
2023-05-21T14:49:08.919Z,34.27
2023-05-21T14:51:36.039Z,35.17
2023-05-21T14:54:03.283Z,35.66
2023-05-21T14:56:30.775Z,35.96
2023-05-21T14:58:57.921Z,34.96
2023-05-21T15:01:25.494Z,35.46
2023-05-21T15:03:53.294Z,35.48
2023-05-21T15:06:20.578Z,36.55
2023-05-21T15:08:47.599Z,35.29
2023-05-21T15:11:14.960Z,35.09
2023-05-21T15:13:42.079Z,36.14
2023-05-21T15:16:09.373Z,35.59
2023-05-21T15:18:36.823Z,35.50
2023-05-21T15:21:05.167Z,36.14
2023-05-21T15:23:32.360Z,37.04
2023-05-21T15:25:59.870Z,35.14
2023-05-21T15:28:26.974Z,35.90
2023-05-21T15:30:54.085Z,37.07
2023-05-21T15:33:21.514Z,36.99
2023-05-21T15:35:48.720Z,36.46
2023-05-21T15:38:16.068Z,36.40
2023-05-21T15:40:44.146Z,36.08
2023-05-21T15:43:11.328Z,36.43
2023-05-21T15:45:39.157Z,35.72
2023-05-21T15:48:07.206Z,36.40
2023-05-21T15:50:35.804Z,35.75
2023-05-21T15:53:04.672Z,36.30
2023-05-21T15:55:33.401Z,35.87
2023-05-21T15:58:02.468Z,36.84
2023-05-21T16:00:29.831Z,38.57
2023-05-21T16:02:57.403Z,37.93
2023-05-21T16:05:24.544Z,37.64
2023-05-21T16:07:52.174Z,38.96
2023-05-21T16:10:19.547Z,37.45
2023-05-21T16:12:46.817Z,38.12
2023-05-21T16:15:13.828Z,38.44
2023-05-21T16:17:41.273Z,38.65
2023-05-21T16:20:08.647Z,37.89
2023-05-21T16:22:35.731Z,39.21
2023-05-21T16:25:03.315Z,38.18
2023-05-21T16:27:30.513Z,37.99
2023-05-21T16:29:58.315Z,38.95
2023-05-21T16:32:25.801Z,39.55
2023-05-21T16:34:52.995Z,39.73
2023-05-21T16:37:20.083Z,40.05
2023-05-21T16:39:47.469Z,40.75
2023-05-21T16:42:14.643Z,40.39
2023-05-21T16:44:41.709Z,40.96
2023-05-21T16:47:09.132Z,41.49
2023-05-21T16:49:36.252Z,41.01
2023-05-21T16:52:03.438Z,41.71
2023-05-21T16:54:31.032Z,40.32
2023-05-21T16:56:58.131Z,41.31
2023-05-21T16:59:25.232Z,42.28
2023-05-21T17:01:52.679Z,41.59
2023-05-21T17:04:19.935Z,41.33
2023-05-21T17:06:46.980Z,41.69
2023-05-21T17:09:14.852Z,41.75
2023-05-21T17:11:43.633Z,43.05
2023-05-21T17:14:11.956Z,42.61
2023-05-21T17:16:42.907Z,42.55
2023-05-21T17:19:10.093Z,42.92
2023-05-21T17:21:37.230Z,43.61
2023-05-21T17:24:04.937Z,44.24
2023-05-21T17:26:32.162Z,45.96
2023-05-21T17:28:59.403Z,45.51
2023-05-21T17:31:26.991Z,45.64
2023-05-21T17:33:56.205Z,46.64
2023-05-21T17:36:23.539Z,45.74
2023-05-21T17:38:50.939Z,46.52
2023-05-21T17:41:19.083Z,47.46
2023-05-21T17:43:46.216Z,46.88
2023-05-21T17:46:18.181Z,47.33
2023-05-21T17:48:45.891Z,47.71
2023-05-21T17:51:13.419Z,48.68
2023-05-21T17:53:41.139Z,49.32
2023-05-21T17:56:08.311Z,49.65
2023-05-21T17:58:35.605Z,50.84
2023-05-21T18:01:03.104Z,50.88
2023-05-21T18:03:30.519Z,53.13
2023-05-21T18:05:57.648Z,53.56
2023-05-21T18:08:24.792Z,53.26
2023-05-21T18:10:52.260Z,54.44
2023-05-21T18:13:19.357Z,54.55
2023-05-21T18:15:46.518Z,54.65
2023-05-21T18:18:19.887Z,55.86
2023-05-21T18:20:47.971Z,56.75
2023-05-21T18:23:15.483Z,57.02
2023-05-21T18:25:42.538Z,57.02
2023-05-21T18:28:10.096Z,58.55
2023-05-21T18:30:37.708Z,58.26
2023-05-21T18:33:05.074Z,59.70
2023-05-21T18:35:32.232Z,58.80
2023-05-21T18:37:59.576Z,59.31
2023-05-21T18:40:30.473Z,60.57
2023-05-21T18:42:57.885Z,59.79
2023-05-21T18:45:25.480Z,60.55
2023-05-21T18:47:52.582Z,60.66
2023-05-21T18:50:20.492Z,59.91
2023-05-21T18:52:47.955Z,60.73
2023-05-21T18:55:15.035Z,61.59
2023-05-21T18:57:42.099Z,61.90
2023-05-21T19:00:09.970Z,62.90
2023-05-21T19:02:37.424Z,62.83
2023-05-21T19:05:05.103Z,64.01
2023-05-21T19:07:32.754Z,64.68
2023-05-21T19:10:00.374Z,65.59
2023-05-21T19:12:29.319Z,65.02
2023-05-21T19:14:59.680Z,66.66
2023-05-21T19:17:27.226Z,67.23
2023-05-21T19:19:56.221Z,67.22
2023-05-21T19:22:24.740Z,68.94
2023-05-21T19:24:52.392Z,69.61
2023-05-21T19:27:19.991Z,70.21
2023-05-21T19:29:47.901Z,70.65
2023-05-21T19:32:18.752Z,70.58
2023-05-21T19:34:46.617Z,71.15
2023-05-21T19:37:14.004Z,72.71
2023-05-21T19:39:43.305Z,72.49
2023-05-21T19:42:10.752Z,72.90
2023-05-21T19:44:43.076Z,74.18
2023-05-21T19:47:10.170Z,74.80
2023-05-21T19:49:37.651Z,75.34
2023-05-21T19:52:05.705Z,75.68
2023-05-21T19:54:32.757Z,75.40
2023-05-21T19:57:00.200Z,75.08
2023-05-21T19:59:27.262Z,75.83
2023-05-21T20:01:55.480Z,75.17
2023-05-21T20:04:22.917Z,75.74
2023-05-21T20:06:50.075Z,76.13
2023-05-21T20:09:18.063Z,76.11
2023-05-21T20:11:45.511Z,75.89
2023-05-21T20:14:13.487Z,76.46
2023-05-21T20:16:42.421Z,76.44
2023-05-21T20:19:10.874Z,77.39
2023-05-21T20:21:38.041Z,77.93
2023-05-21T20:24:05.578Z,79.82
2023-05-21T20:26:35.026Z,80.60
2023-05-21T20:29:02.237Z,79.64
2023-05-21T20:31:29.525Z,79.63
2023-05-21T20:33:57.029Z,79.65
2023-05-21T20:36:25.789Z,78.46
2023-05-21T20:38:53.054Z,77.89
2023-05-21T20:41:20.490Z,77.87
2023-05-21T20:43:47.632Z,78.32
2023-05-21T20:46:17.285Z,78.93
2023-05-21T20:48:44.827Z,79.47
2023-05-21T20:51:12.283Z,80.19
2023-05-21T20:53:39.308Z,79.15
2023-05-21T20:56:08.153Z,79.73
2023-05-21T20:58:35.432Z,80.19
2023-05-21T21:01:02.547Z,80.40
2023-05-21T21:03:33.775Z,81.41
2023-05-21T21:06:01.209Z,83.03
2023-05-21T21:08:28.275Z,82.17
2023-05-21T21:10:55.873Z,81.64
2023-05-21T21:13:22.912Z,82.48
2023-05-21T21:15:50.163Z,81.45
2023-05-21T21:18:17.641Z,81.15
2023-05-21T21:20:49.459Z,80.67
2023-05-21T21:23:16.662Z,80.97
2023-05-21T21:25:44.093Z,80.90
2023-05-21T21:28:11.223Z,81.09
2023-05-21T21:30:40.997Z,81.94
2023-05-21T21:33:08.752Z,81.88
2023-05-21T21:35:36.041Z,83.68
2023-05-21T21:38:04.973Z,83.52
2023-05-21T21:40:32.454Z,82.95
2023-05-21T21:42:59.544Z,83.62
2023-05-21T21:45:26.664Z,83.88
2023-05-21T21:47:54.072Z,83.76
2023-05-21T21:50:21.118Z,83.26
2023-05-21T21:52:48.884Z,83.34
2023-05-21T21:55:16.408Z,83.29
2023-05-21T21:57:43.443Z,82.78
2023-05-21T22:00:11.611Z,81.72
2023-05-21T22:02:40.274Z,80.78
2023-05-21T22:05:08.767Z,80.76
2023-05-21T22:07:38.602Z,80.16
2023-05-21T22:10:06.583Z,80.93
2023-05-21T22:12:34.022Z,80.73
2023-05-21T22:15:05.713Z,81.44
2023-05-21T22:17:34.143Z,77.25
2023-05-21T22:20:01.478Z,76.34
2023-05-21T22:22:28.609Z,73.19
2023-05-21T22:24:56.501Z,72.59
2023-05-21T22:27:23.581Z,72.08
2023-05-21T22:29:50.563Z,72.24
2023-05-21T22:32:17.946Z,72.18
2023-05-21T22:34:44.946Z,72.34
2023-05-21T22:37:12.328Z,72.77
2023-05-21T22:39:39.832Z,72.61
2023-05-21T22:42:07.071Z,71.28
2023-05-21T22:44:34.333Z,71.21
2023-05-21T22:47:03.712Z,69.94
2023-05-21T22:49:32.753Z,68.71
2023-05-21T22:52:05.270Z,68.28
2023-05-21T22:54:32.814Z,67.61
2023-05-21T22:57:01.183Z,66.77
2023-05-21T22:59:29.439Z,67.38
2023-05-21T23:01:56.901Z,67.80
2023-05-21T23:04:42.617Z,67.77
2023-05-21T23:07:11.818Z,67.83
2023-05-21T23:09:38.884Z,68.23
2023-05-21T23:12:06.438Z,69.33
2023-05-21T23:14:33.837Z,68.62
2023-05-21T23:17:01.917Z,69.47
2023-05-21T23:19:29.745Z,70.37
2023-05-21T23:21:57.384Z,70.24
2023-05-21T23:24:24.544Z,71.13
2023-05-21T23:26:52.388Z,71.24
2023-05-21T23:29:19.748Z,71.42
2023-05-21T23:31:47.079Z,71.65
2023-05-21T23:34:14.630Z,71.84
2023-05-21T23:36:41.984Z,71.92
2023-05-21T23:39:09.411Z,71.14
2023-05-21T23:41:36.484Z,70.90
2023-05-21T23:44:03.944Z,70.46
2023-05-21T23:46:31.009Z,72.00
2023-05-21T23:48:58.028Z,71.28
2023-05-21T23:51:25.487Z,72.18
2023-05-21T23:53:52.505Z,72.90
2023-05-21T23:56:19.550Z,73.63
2023-05-21T23:58:46.852Z,73.86
